Time;durP1;ratioP1;P1;durP2;ratioP2;P2;SDS_P1;SDS_P2;PMS_P1;PMS_P2;Temp;Humidity;BMP_temperature;BMP_pressure;BME280_temperature;BME280_humidity;BME280_pressure;Samples;Min_cycle;Max_cycle;Signal;HPM_P1;HPM_P2
2023/07/23 00:02:02;;;;;;;0.10;0.10;;;;;;;;;;5114145;28;20044;-43
2023/07/23 00:04:28;;;;;;;0.10;0.10;;;;;;;;;;5113755;28;20101;-44
2023/07/23 00:06:53;;;;;;;0.10;0.10;;;;;;;;;;5113870;28;20044;-43
2023/07/23 00:09:19;;;;;;;0.10;0.10;;;;;;;;;;5114382;28;20040;-44
2023/07/23 00:11:45;;;;;;;0.10;0.10;;;;;;;;;;5112749;28;20161;-43
2023/07/23 00:14:10;;;;;;;0.10;0.10;;;;;;;;;;5113977;28;20430;-43
2023/07/23 00:16:36;;;;;;;0.50;0.50;;;;;;;;;;5115085;28;20065;-45
2023/07/23 00:19:01;;;;;;;0.10;0.10;;;;;;;;;;5132653;28;20142;-42
2023/07/23 00:21:27;;;;;;;0.10;0.10;;;;;;;;;;5112707;28;20054;-42
2023/07/23 00:23:53;;;;;;;0.10;0.10;;;;;;;;;;5113398;28;20050;-43
2023/07/23 00:26:18;;;;;;;0.10;0.10;;;;;;;;;;5114176;28;20047;-42
2023/07/23 00:28:44;;;;;;;0.10;0.10;;;;;;;;;;5114348;28;20043;-45
2023/07/23 00:31:09;;;;;;;0.10;0.10;;;;;;;;;;5101291;28;20048;-43
2023/07/23 00:33:35;;;;;;;0.10;0.10;;;;;;;;;;5093853;28;20082;-44
2023/07/23 00:36:00;;;;;;;0.10;0.10;;;;;;;;;;5113423;28;20052;-42
2023/07/23 00:38:26;;;;;;;0.10;0.10;;;;;;;;;;5113577;28;20161;-42
2023/07/23 00:40:52;;;;;;;0.10;0.10;;;;;;;;;;5111499;28;20462;-43
2023/07/23 00:43:18;;;;;;;0.10;0.10;;;;;;;;;;5113457;28;20055;-43
2023/07/23 00:45:43;;;;;;;0.10;0.10;;;;;;;;;;5113419;28;20048;-46
2023/07/23 00:48:09;;;;;;;0.10;0.10;;;;;;;;;;5113879;28;20126;-45
2023/07/23 00:50:34;;;;;;;0.10;0.10;;;;;;;;;;5113376;28;20533;-42
2023/07/23 00:53:00;;;;;;;0.10;0.10;;;;;;;;;;5113745;28;20067;-43
2023/07/23 00:55:26;;;;;;;0.10;0.10;;;;;;;;;;5113727;28;20051;-43
2023/07/23 00:57:52;;;;;;;0.10;0.10;;;;;;;;;;5113049;28;20053;-44
2023/07/23 01:00:17;;;;;;;0.10;0.10;;;;;;;;;;5108140;28;20093;-43
2023/07/23 01:02:43;;;;;;;0.10;0.10;;;;;;;;;;5093330;28;20043;-43
2023/07/23 01:05:08;;;;;;;0.10;0.10;;;;;;;;;;5093371;28;20150;-45
2023/07/23 01:07:34;;;;;;;0.10;0.10;;;;;;;;;;5092961;28;20127;-43
2023/07/23 01:10:00;;;;;;;0.10;0.10;;;;;;;;;;5091615;28;20082;-41
2023/07/23 01:12:26;;;;;;;0.10;0.10;;;;;;;;;;5092404;28;20480;-46
2023/07/23 01:14:52;;;;;;;0.10;0.10;;;;;;;;;;5092657;28;20048;-44
2023/07/23 01:17:18;;;;;;;0.10;0.10;;;;;;;;;;5115729;28;20043;-47
2023/07/23 01:19:44;;;;;;;0.10;0.10;;;;;;;;;;5112675;28;20051;-42
2023/07/23 01:22:09;;;;;;;0.10;0.10;;;;;;;;;;5112352;28;20074;-41
2023/07/23 01:24:35;;;;;;;0.10;0.10;;;;;;;;;;5112553;28;20039;-44
2023/07/23 01:27:01;;;;;;;0.10;0.10;;;;;;;;;;5110853;28;20407;-45
2023/07/23 01:29:27;;;;;;;0.10;0.10;;;;;;;;;;5112851;28;20067;-43
2023/07/23 01:31:53;;;;;;;0.10;0.10;;;;;;;;;;5093770;28;20086;-44
2023/07/23 01:34:19;;;;;;;0.10;0.10;;;;;;;;;;5092226;28;20488;-46
2023/07/23 01:36:44;;;;;;;0.10;0.10;;;;;;;;;;5103225;28;20048;-43
2023/07/23 01:39:10;;;;;;;0.10;0.10;;;;;;;;;;5112518;28;20442;-46
2023/07/23 01:41:36;;;;;;;0.10;0.10;;;;;;;;;;5110037;28;20081;-46
2023/07/23 01:44:01;;;;;;;0.10;0.10;;;;;;;;;;5112210;28;20051;-44
2023/07/23 01:46:27;;;;;;;0.10;0.10;;;;;;;;;;5112030;28;20400;-44
2023/07/23 01:48:53;;;;;;;0.10;0.10;;;;;;;;;;5111699;28;20063;-46
2023/07/23 01:51:18;;;;;;;0.10;0.10;;;;;;;;;;5098180;28;20132;-44
2023/07/23 01:53:44;;;;;;;0.10;0.10;;;;;;;;;;5091867;28;20051;-46
2023/07/23 01:56:09;;;;;;;0.10;0.10;;;;;;;;;;5091951;28;20101;-45
2023/07/23 01:58:35;;;;;;;0.10;0.10;;;;;;;;;;5099665;28;20055;-44
2023/07/23 02:01:00;;;;;;;0.10;0.10;;;;;;;;;;5111682;28;20079;-45
2023/07/23 02:03:26;;;;;;;0.10;0.10;;;;;;;;;;5112351;28;20051;-42
2023/07/23 02:05:55;;;;;;;0.10;0.10;;;;;;;;;;5112359;28;20055;-44
2023/07/23 02:08:21;;;;;;;0.10;0.10;;;;;;;;;;5111914;28;20043;-41
2023/07/23 02:10:47;;;;;;;0.10;0.10;;;;;;;;;;5110885;28;20047;-46
2023/07/23 02:13:12;;;;;;;0.10;0.10;;;;;;;;;;5112121;28;20044;-53
2023/07/23 02:15:38;;;;;;;0.10;0.10;;;;;;;;;;5102971;28;20052;-52
2023/07/23 02:18:03;;;;;;;0.10;0.10;;;;;;;;;;5125809;28;20084;-53
2023/07/23 02:20:29;;;;;;;0.10;0.10;;;;;;;;;;5117672;28;20055;-52
2023/07/23 02:22:56;;;;;;;0.10;0.10;;;;;;;;;;5095768;28;20143;-52
2023/07/23 02:25:22;;;;;;;0.10;0.10;;;;;;;;;;5111579;28;20039;-53
2023/07/23 02:27:47;;;;;;;0.10;0.10;;;;;;;;;;5111335;28;20417;-52
2023/07/23 02:30:13;;;;;;;0.10;0.10;;;;;;;;;;5106805;28;20395;-53
2023/07/23 02:32:38;;;;;;;0.10;0.10;;;;;;;;;;5091539;28;20048;-53
2023/07/23 02:35:04;;;;;;;0.10;0.10;;;;;;;;;;5091684;28;20071;-52
2023/07/23 02:37:29;;;;;;;0.10;0.10;;;;;;;;;;5093814;28;20146;-52
2023/07/23 02:39:55;;;;;;;0.10;0.10;;;;;;;;;;5111208;28;20044;-53
2023/07/23 02:42:20;;;;;;;0.10;0.10;;;;;;;;;;5111331;28;20059;-52
2023/07/23 02:44:46;;;;;;;0.10;0.10;;;;;;;;;;5111677;28;20142;-52
2023/07/23 02:47:12;;;;;;;0.10;0.10;;;;;;;;;;5111471;28;20054;-52
2023/07/23 02:49:37;;;;;;;0.10;0.10;;;;;;;;;;5111811;28;20412;-52
2023/07/23 02:52:04;;;;;;;0.10;0.10;;;;;;;;;;5111338;28;20528;-52
2023/07/23 02:54:30;;;;;;;0.10;0.10;;;;;;;;;;5111434;28;20202;-53
2023/07/23 02:56:56;;;;;;;0.10;0.10;;;;;;;;;;5111838;28;20757;-53
2023/07/23 02:59:21;;;;;;;0.10;0.10;;;;;;;;;;5111660;28;20065;-53
2023/07/23 03:01:47;;;;;;;0.10;0.10;;;;;;;;;;5109857;28;20479;-53
2023/07/23 03:04:13;;;;;;;0.10;0.10;;;;;;;;;;5111684;28;20055;-52
2023/07/23 03:06:39;;;;;;;0.10;0.10;;;;;;;;;;5111681;28;20547;-53
2023/07/23 03:09:04;;;;;;;0.10;0.10;;;;;;;;;;5111677;28;20047;-52
2023/07/23 03:11:31;;;;;;;0.10;0.10;;;;;;;;;;5110859;28;20054;-52
2023/07/23 03:13:57;;;;;;;0.10;0.10;;;;;;;;;;5111209;28;20123;-52
2023/07/23 03:16:22;;;;;;;0.10;0.10;;;;;;;;;;5110973;28;20082;-52
2023/07/23 03:18:48;;;;;;;0.10;0.10;;;;;;;;;;5131927;28;20061;-53
2023/07/23 03:21:13;;;;;;;0.10;0.10;;;;;;;;;;5118319;28;20430;-53
2023/07/23 03:23:40;;;;;;;0.10;0.10;;;;;;;;;;5111286;28;20051;-53
2023/07/23 03:26:05;;;;;;;0.10;0.10;;;;;;;;;;5109734;28;20048;-52
2023/07/23 03:28:31;;;;;;;0.10;0.10;;;;;;;;;;5110788;28;20066;-53
2023/07/23 03:30:56;;;;;;;0.10;0.10;;;;;;;;;;5099551;28;20047;-52
2023/07/23 03:33:22;;;;;;;0.10;0.10;;;;;;;;;;5089773;28;20415;-52
2023/07/23 03:35:47;;;;;;;0.10;0.10;;;;;;;;;;5090567;28;20051;-51
2023/07/23 03:38:12;;;;;;;0.10;0.10;;;;;;;;;;5090294;28;20055;-52
2023/07/23 03:40:39;;;;;;;0.10;0.10;;;;;;;;;;5101497;28;20047;-52
2023/07/23 03:43:05;;;;;;;0.10;0.10;;;;;;;;;;5110737;28;20043;-53
2023/07/23 03:45:30;;;;;;;0.10;0.10;;;;;;;;;;5109840;28;20055;-53
2023/07/23 03:47:56;;;;;;;0.10;0.10;;;;;;;;;;5110455;28;20048;-53
2023/07/23 03:50:21;;;;;;;0.10;0.10;;;;;;;;;;5104213;28;20048;-52
2023/07/23 03:52:47;;;;;;;0.10;0.10;;;;;;;;;;5089987;28;20143;-53
2023/07/23 03:55:13;;;;;;;0.10;0.10;;;;;;;;;;5090263;28;20134;-53
2023/07/23 03:57:39;;;;;;;0.10;0.10;;;;;;;;;;5090041;28;20079;-53
2023/07/23 04:00:05;;;;;;;0.10;0.10;;;;;;;;;;5089070;28;20435;-53
2023/07/23 04:02:31;;;;;;;0.10;0.10;;;;;;;;;;5100894;28;20494;-52
2023/07/23 04:04:57;;;;;;;0.10;0.10;;;;;;;;;;5109959;28;20055;-51
2023/07/23 04:07:22;;;;;;;0.10;0.10;;;;;;;;;;5110522;28;20044;-53
2023/07/23 04:09:48;;;;;;;0.10;0.10;;;;;;;;;;5108854;28;20044;-52
2023/07/23 04:12:13;;;;;;;0.10;0.10;;;;;;;;;;5089337;28;20046;-52
2023/07/23 04:14:46;;;;;;;0.10;0.10;;;;;;;;;;5093944;28;20044;-53
2023/07/23 04:17:12;;;;;;;0.10;0.10;;;;;;;;;;5130229;28;20048;-52
2023/07/23 04:19:40;;;;;;;0.10;0.10;;;;;;;;;;5130310;28;20047;-52
2023/07/23 04:22:06;;;;;;;0.10;0.10;;;;;;;;;;5109335;28;20107;-53
2023/07/23 04:24:31;;;;;;;0.10;0.10;;;;;;;;;;5109702;28;20134;-53
2023/07/23 04:26:57;;;;;;;0.20;0.20;;;;;;;;;;5109093;28;20058;-53
2023/07/23 04:29:23;;;;;;;0.10;0.10;;;;;;;;;;5109025;28;20051;-52
2023/07/23 04:31:48;;;;;;;0.10;0.10;;;;;;;;;;5106491;28;20040;-52
2023/07/23 04:34:14;;;;;;;0.10;0.10;;;;;;;;;;5109495;28;20450;-53
2023/07/23 04:36:40;;;;;;;0.10;0.10;;;;;;;;;;5109536;28;20055;-52
2023/07/23 04:39:05;;;;;;;0.10;0.10;;;;;;;;;;5109073;28;20043;-52
2023/07/23 04:41:31;;;;;;;0.10;0.10;;;;;;;;;;5108487;28;20753;-53
2023/07/23 04:43:57;;;;;;;0.10;0.10;;;;;;;;;;5109179;28;20138;-52
2023/07/23 04:46:23;;;;;;;0.10;0.10;;;;;;;;;;5110971;28;20055;-53
2023/07/23 04:48:48;;;;;;;0.10;0.10;;;;;;;;;;5112719;28;20515;-53
2023/07/23 04:51:14;;;;;;;0.10;0.10;;;;;;;;;;5099365;28;20078;-52
2023/07/23 04:53:39;;;;;;;0.10;0.10;;;;;;;;;;5092830;28;20044;-53
2023/07/23 04:56:05;;;;;;;0.10;0.10;;;;;;;;;;5093521;28;20078;-53
2023/07/23 04:58:31;;;;;;;0.10;0.10;;;;;;;;;;5093340;28;20098;-53
2023/07/23 05:00:58;;;;;;;0.10;0.10;;;;;;;;;;5092894;28;20052;-52
2023/07/23 05:03:24;;;;;;;0.10;0.10;;;;;;;;;;5096506;28;20047;-53
2023/07/23 05:05:50;;;;;;;0.15;0.15;;;;;;;;;;5111422;28;20381;-53
2023/07/23 05:08:17;;;;;;;0.10;0.10;;;;;;;;;;5113763;28;20403;-53
2023/07/23 05:10:42;;;;;;;0.10;0.10;;;;;;;;;;5104185;28;20055;-52
2023/07/23 05:13:08;;;;;;;0.10;0.10;;;;;;;;;;5092850;28;20040;-53
2023/07/23 05:15:33;;;;;;;0.10;0.10;;;;;;;;;;5121480;28;20049;-53
2023/07/23 05:17:59;;;;;;;0.10;0.10;;;;;;;;;;5133875;28;20047;-53
2023/07/23 05:20:25;;;;;;;0.10;0.10;;;;;;;;;;5118750;28;20395;-53
2023/07/23 05:22:50;;;;;;;0.10;0.10;;;;;;;;;;5113215;28;20058;-53
2023/07/23 05:25:16;;;;;;;0.10;0.10;;;;;;;;;;5113389;28;20447;-53
2023/07/23 05:27:41;;;;;;;0.10;0.10;;;;;;;;;;5113467;28;20425;-53
2023/07/23 05:30:07;;;;;;;0.10;0.10;;;;;;;;;;5108252;28;20097;-52
2023/07/23 05:32:33;;;;;;;0.10;0.10;;;;;;;;;;5100766;28;20052;-53
2023/07/23 05:34:58;;;;;;;0.10;0.10;;;;;;;;;;5113106;28;20093;-53
2023/07/23 05:37:25;;;;;;;0.10;0.10;;;;;;;;;;5113273;28;20104;-52
2023/07/23 05:39:52;;;;;;;0.10;0.10;;;;;;;;;;5110820;28;20396;-51
2023/07/23 05:42:17;;;;;;;0.10;0.10;;;;;;;;;;5092398;28;20075;-53
2023/07/23 05:44:43;;;;;;;0.10;0.10;;;;;;;;;;5110492;28;20408;-52
2023/07/23 05:47:08;;;;;;;0.10;0.10;;;;;;;;;;5112304;28;20048;-53
2023/07/23 05:49:34;;;;;;;0.10;0.10;;;;;;;;;;5112441;28;20065;-52
2023/07/23 05:51:59;;;;;;;0.10;0.10;;;;;;;;;;5093229;28;20411;-51
2023/07/23 05:54:25;;;;;;;0.10;0.10;;;;;;;;;;5092204;28;20388;-53
2023/07/23 05:56:50;;;;;;;0.10;0.10;;;;;;;;;;5092112;28;20048;-53
2023/07/23 05:59:16;;;;;;;0.10;0.10;;;;;;;;;;5092200;28;20106;-52
2023/07/23 06:01:42;;;;;;;0.10;0.10;;;;;;;;;;5092179;28;20059;-51
2023/07/23 06:04:07;;;;;;;0.10;0.10;;;;;;;;;;5092550;28;20484;-52
2023/07/23 06:06:33;;;;;;;0.10;0.10;;;;;;;;;;5108560;28;20385;-52
2023/07/23 06:08:59;;;;;;;0.10;0.10;;;;;;;;;;5112733;28;20051;-53
2023/07/23 06:11:24;;;;;;;0.10;0.10;;;;;;;;;;5111064;28;20043;-52
2023/07/23 06:13:50;;;;;;;0.10;0.10;;;;;;;;;;5112033;27;20051;-52
2023/07/23 06:16:15;;;;;;;0.10;0.10;;;;;;;;;;5111780;28;20051;-52
2023/07/23 06:18:41;;;;;;;0.10;0.10;;;;;;;;;;5112027;28;20051;-52
2023/07/23 06:21:06;;;;;;;0.10;0.10;;;;;;;;;;5111093;28;20473;-53
2023/07/23 06:23:33;;;;;;;0.10;0.10;;;;;;;;;;5111856;28;20411;-52
2023/07/23 06:25:58;;;;;;;0.10;0.10;;;;;;;;;;5111517;28;20068;-52
2023/07/23 06:28:24;;;;;;;0.10;0.10;;;;;;;;;;5111809;28;20059;-53
2023/07/23 06:30:50;;;;;;;0.10;0.10;;;;;;;;;;5109061;28;20054;-52
2023/07/23 06:33:16;;;;;;;0.10;0.10;;;;;;;;;;5111756;28;20059;-53
2023/07/23 06:35:42;;;;;;;0.10;0.10;;;;;;;;;;5111192;28;20560;-53
2023/07/23 06:38:07;;;;;;;0.10;0.10;;;;;;;;;;5111940;28;20062;-52
2023/07/23 06:40:33;;;;;;;0.10;0.10;;;;;;;;;;5103476;28;20044;-52
2023/07/23 06:42:58;;;;;;;0.10;0.10;;;;;;;;;;5091188;28;20430;-52
2023/07/23 06:45:24;;;;;;;0.10;0.10;;;;;;;;;;5099282;28;20040;-53
2023/07/23 06:47:49;;;;;;;0.10;0.10;;;;;;;;;;5110789;28;20078;-52
2023/07/23 06:50:17;;;;;;;0.10;0.10;;;;;;;;;;5109821;28;20044;-53
2023/07/23 06:52:43;;;;;;;;;;;;;;;;;;5111660;28;20105;-53
2023/07/23 06:55:08;;;;;;;0.10;0.10;;;;;;;;;;5111365;28;19965;-52
2023/07/23 06:57:34;;;;;;;0.10;0.10;;;;;;;;;;5111575;28;20078;-52
2023/07/23 06:59:59;;;;;;;0.10;0.10;;;;;;;;;;5107980;28;20058;-53
2023/07/23 07:02:25;;;;;;;0.10;0.10;;;;;;;;;;5091003;28;20044;-53
2023/07/23 07:04:51;;;;;;;0.10;0.10;;;;;;;;;;5091213;28;20052;-52
2023/07/23 07:07:16;;;;;;;0.10;0.10;;;;;;;;;;5097661;28;20074;-52
2023/07/23 07:09:42;;;;;;;0.10;0.10;;;;;;;;;;5110470;28;20073;-51
2023/07/23 07:12:08;;;;;;;0.10;0.10;;;;;;;;;;5110561;28;20089;-52
2023/07/23 07:14:33;;;;;;;0.10;0.10;;;;;;;;;;5129711;28;20055;-53
2023/07/23 07:16:59;;;;;;;0.10;0.10;;;;;;;;;;5130814;28;20051;-53
2023/07/23 07:19:24;;;;;;;0.10;0.10;;;;;;;;;;5119288;28;20043;-52
2023/07/23 07:21:50;;;;;;;0.10;0.10;;;;;;;;;;5110758;28;20472;-53
2023/07/23 07:24:17;;;;;;;0.10;0.10;;;;;;;;;;5110946;28;20044;-53
2023/07/23 07:26:42;;;;;;;0.10;0.10;;;;;;;;;;5110681;28;20112;-51
2023/07/23 07:29:08;;;;;;;0.10;0.10;;;;;;;;;;5111053;28;20441;-53
2023/07/23 07:31:33;;;;;;;0.10;0.10;;;;;;;;;;5110372;28;20044;-51
2023/07/23 07:33:59;;;;;;;0.10;0.10;;;;;;;;;;5110731;28;20044;-53
2023/07/23 07:36:25;;;;;;;0.10;0.10;;;;;;;;;;5110114;28;20051;-52
2023/07/23 07:38:50;;;;;;;0.10;0.10;;;;;;;;;;5111167;28;20135;-52
2023/07/23 07:41:16;;;;;;;0.10;0.10;;;;;;;;;;5097146;28;20472;-53
2023/07/23 07:43:41;;;;;;;0.10;0.10;;;;;;;;;;5090696;28;20068;-53
2023/07/23 07:46:08;;;;;;;0.10;0.10;;;;;;;;;;5090462;28;20467;-52
2023/07/23 07:48:35;;;;;;;0.10;0.10;;;;;;;;;;5108478;28;20059;-53
2023/07/23 07:51:01;;;;;;;0.10;0.10;;;;;;;;;;5110410;28;20044;-52
2023/07/23 07:53:27;;;;;;;0.10;0.10;;;;;;;;;;5111149;28;20058;-52
2023/07/23 07:55:53;;;;;;;0.10;0.10;;;;;;;;;;5110940;28;20407;-53
2023/07/23 07:58:24;;;;;;;0.10;0.10;;;;;;;;;;5111309;28;20052;-52
2023/07/23 08:00:58;;;;;;;0.10;0.10;;;;;;;;;;5110417;28;20403;-52
2023/07/23 08:03:24;;;;;;;0.10;0.10;;;;;;;;;;5111107;28;20043;-52
2023/07/23 08:05:51;;;;;;;0.10;0.10;;;;;;;;;;5111080;28;20052;-52
2023/07/23 08:08:19;;;;;;;0.15;0.15;;;;;;;;;;5110530;28;20048;-51
2023/07/23 08:10:45;;;;;;;0.10;0.10;;;;;;;;;;5109352;28;20062;-52
2023/07/23 08:13:13;;;;;;;0.10;0.10;;;;;;;;;;5109715;27;20079;-52
2023/07/23 08:15:39;;;;;;;0.10;0.10;;;;;;;;;;5110753;28;20040;-52
2023/07/23 08:18:05;;;;;;;0.10;0.10;;;;;;;;;;5110846;28;20086;-53
2023/07/23 08:20:32;;;;;;;0.20;0.20;;;;;;;;;;5104951;28;20051;-52
2023/07/23 08:22:58;;;;;;;0.10;0.10;;;;;;;;;;5093873;28;20102;-51
2023/07/23 08:25:24;;;;;;;0.10;0.10;;;;;;;;;;5093666;28;20087;-51
2023/07/23 08:27:50;;;;;;;0.10;0.10;;;;;;;;;;5093616;28;20063;-52
2023/07/23 08:30:16;;;;;;;0.10;0.10;;;;;;;;;;5094091;28;20082;-52
2023/07/23 08:32:42;;;;;;;0.10;0.10;;;;;;;;;;5113477;28;20051;-52
2023/07/23 08:35:11;;;;;;;0.10;0.10;;;;;;;;;;5113192;28;20160;-52
2023/07/23 08:37:36;;;;;;;0.20;0.20;;;;;;;;;;5113107;28;20055;-51
2023/07/23 08:40:02;;;;;;;0.10;0.10;;;;;;;;;;5112583;28;20083;-49
2023/07/23 08:42:48;;;;;;;0.10;0.10;;;;;;;;;;5113511;28;20055;-51
2023/07/23 08:45:22;;;;;;;0.10;0.10;;;;;;;;;;5098228;28;20109;-52
2023/07/23 08:47:48;;;;;;;0.10;0.10;;;;;;;;;;5113182;28;20063;-52
2023/07/23 08:50:14;;;;;;;0.10;0.10;;;;;;;;;;5112625;28;20052;-52
2023/07/23 08:52:41;;;;;;;0.10;0.10;;;;;;;;;;5113234;28;20480;-50
2023/07/23 08:55:07;;;;;;;0.10;0.10;;;;;;;;;;5112436;28;20043;-52
2023/07/23 08:57:33;;;;;;;0.10;0.10;;;;;;;;;;5113400;28;20052;-52
2023/07/23 09:00:00;;;;;;;0.10;0.10;;;;;;;;;;5110353;28;20053;-52
2023/07/23 09:02:25;;;;;;;0.10;0.10;;;;;;;;;;5092484;28;20055;-53
2023/07/23 09:04:51;;;;;;;0.10;0.10;;;;;;;;;;5092450;28;20048;-52
2023/07/23 09:07:18;;;;;;;0.10;0.10;;;;;;;;;;5092629;28;20068;-51
2023/07/23 09:09:46;;;;;;;0.17;0.17;;;;;;;;;;5092750;28;20047;-51
2023/07/23 09:12:12;;;;;;;;;;;;;;;;;;5106761;28;20499;-52
2023/07/23 09:14:42;;;;;;;0.10;0.10;;;;;;;;;;5114459;28;19967;-53
2023/07/23 09:17:15;;;;;;;0.10;0.10;;;;;;;;;;5112921;28;20327;-51
2023/07/23 09:19:40;;;;;;;0.20;0.20;;;;;;;;;;5112903;28;20051;-50
2023/07/23 09:22:06;;;;;;;0.22;0.22;;;;;;;;;;5113008;28;20055;-52
2023/07/23 09:24:33;;;;;;;0.10;0.10;;;;;;;;;;5113528;28;20570;-53
2023/07/23 09:26:59;;;;;;;0.10;0.10;;;;;;;;;;5113244;28;20076;-53
2023/07/23 09:29:33;;;;;;;0.10;0.10;;;;;;;;;;5113104;28;20051;-52
2023/07/23 09:31:58;;;;;;;0.10;0.10;;;;;;;;;;5111746;28;20051;-52
2023/07/23 09:34:24;;;;;;;0.10;0.10;;;;;;;;;;5112618;28;20052;-52
2023/07/23 09:36:52;;;;;;;0.10;0.10;;;;;;;;;;5112725;28;20048;-52
2023/07/23 09:39:17;;;;;;;0.10;0.10;;;;;;;;;;5112720;28;20407;-52
2023/07/23 09:41:43;;;;;;;0.10;0.10;;;;;;;;;;5112056;28;20051;-52
2023/07/23 09:44:09;;;;;;;0.10;0.10;;;;;;;;;;5112775;28;20052;-52
2023/07/23 09:46:35;;;;;;;0.10;0.10;;;;;;;;;;5112709;28;20071;-52
2023/07/23 09:49:01;;;;;;;0.10;0.10;;;;;;;;;;5113105;28;20126;-53
2023/07/23 09:51:27;;;;;;;0.28;0.28;;;;;;;;;;5110695;28;20527;-54
2023/07/23 09:53:53;;;;;;;0.10;0.10;;;;;;;;;;5112513;28;20051;-52
2023/07/23 09:56:19;;;;;;;0.10;0.10;;;;;;;;;;5112094;28;20055;-52
2023/07/23 09:58:47;;;;;;;0.10;0.10;;;;;;;;;;5111586;28;20466;-52
2023/07/23 10:01:13;;;;;;;0.10;0.10;;;;;;;;;;5098696;28;20056;-52
2023/07/23 10:03:39;;;;;;;0.10;0.10;;;;;;;;;;5091747;28;20499;-51
2023/07/23 10:06:05;;;;;;;0.10;0.10;;;;;;;;;;5092002;28;20070;-52
2023/07/23 10:08:34;;;;;;;0.10;0.10;;;;;;;;;;5091299;28;20087;-51
2023/07/23 10:11:00;;;;;;;0.10;0.10;;;;;;;;;;5102086;28;20067;-52
2023/07/23 10:13:26;;;;;;;0.10;0.10;;;;;;;;;;5120996;28;20101;-52
2023/07/23 10:15:52;;;;;;;0.10;0.10;;;;;;;;;;5132371;28;20069;-51
2023/07/23 10:18:18;;;;;;;0.10;0.10;;;;;;;;;;5132896;28;20081;-53
2023/07/23 10:20:44;;;;;;;0.10;0.10;;;;;;;;;;5114416;28;20109;-52
2023/07/23 10:23:09;;;;;;;0.10;0.10;;;;;;;;;;5091465;28;20069;-52
2023/07/23 10:25:35;;;;;;;0.15;0.15;;;;;;;;;;5091613;28;20104;-52
2023/07/23 10:28:07;;;;;;;0.10;0.10;;;;;;;;;;5091448;28;20127;-52
2023/07/23 10:30:34;;;;;;;0.10;0.10;;;;;;;;;;5091163;28;20048;-55
2023/07/23 10:33:19;;;;;;;0.10;0.10;;;;;;;;;;5091266;28;20518;-52
2023/07/23 10:38:28;;;;;;;0.10;0.10;;;;;;;;;;5190730;27;20149;-48
2023/07/23 10:40:54;;;;;;;0.10;0.10;;;;;;;;;;5161029;27;20129;-50
2023/07/23 10:43:20;;;;;;;0.10;0.10;;;;;;;;;;5169505;27;20049;-50
2023/07/23 10:45:49;;;;;;;0.10;0.10;;;;;;;;;;5169645;27;20406;-50
2023/07/23 10:48:15;;;;;;;0.10;0.10;;;;;;;;;;5169804;27;20043;-50
2023/07/23 10:50:42;;;;;;;0.10;0.10;;;;;;;;;;5169538;27;20513;-49
2023/07/23 10:53:08;;;;;;;0.10;0.10;;;;;;;;;;5169538;27;20049;-50
2023/07/23 10:55:37;;;;;;;0.10;0.10;;;;;;;;;;5169736;27;20043;-50
2023/07/23 10:58:08;;;;;;;0.10;0.10;;;;;;;;;;5169619;27;20054;-50
2023/07/23 11:00:34;;;;;;;0.10;0.10;;;;;;;;;;5166395;27;20372;-49
2023/07/23 11:03:00;;;;;;;0.10;0.10;;;;;;;;;;5148931;27;20083;-50
2023/07/23 11:05:26;;;;;;;0.10;0.10;;;;;;;;;;5148490;27;20047;-49
2023/07/23 11:08:11;;;;;;;0.10;0.10;;;;;;;;;;5148938;27;20845;-50
2023/07/23 11:10:57;;;;;;;0.10;0.10;;;;;;;;;;5132393;27;20065;-49
2023/07/23 11:13:27;;;;;;;0.10;0.10;;;;;;;;;;5139009;27;20503;-50
2023/07/23 11:15:52;;;;;;;0.10;0.10;;;;;;;;;;5148451;27;20047;-49
2023/07/23 11:18:19;;;;;;;0.10;0.10;;;;;;;;;;5148876;27;20504;-49
2023/07/23 11:20:47;;;;;;;0.10;0.10;;;;;;;;;;5148290;27;20111;-50
2023/07/23 11:23:13;;;;;;;0.10;0.10;;;;;;;;;;5148697;27;20091;-49
2023/07/23 11:25:39;;;;;;;0.10;0.10;;;;;;;;;;5148645;27;20047;-50
2023/07/23 11:28:05;;;;;;;0.10;0.10;;;;;;;;;;5148595;27;20047;-50
2023/07/23 11:30:31;;;;;;;0.10;0.10;;;;;;;;;;5147949;27;20061;-50
2023/07/23 11:32:58;;;;;;;0.10;0.10;;;;;;;;;;5148834;27;20039;-50
2023/07/23 11:35:24;;;;;;;0.10;0.10;;;;;;;;;;5148322;27;20321;-50
2023/07/23 11:37:49;;;;;;;0.10;0.10;;;;;;;;;;5147497;27;20057;-50
2023/07/23 11:40:19;;;;;;;0.10;0.10;;;;;;;;;;5147094;27;20047;-50
2023/07/23 11:42:44;;;;;;;0.10;0.10;;;;;;;;;;5147966;27;20123;-50
2023/07/23 11:45:10;;;;;;;0.10;0.10;;;;;;;;;;5148013;27;20429;-50
2023/07/23 11:47:55;;;;;;;0.10;0.10;;;;;;;;;;5147673;27;20137;-50
2023/07/23 11:50:22;;;;;;;0.10;0.10;;;;;;;;;;5132657;27;20069;-50
2023/07/23 11:52:49;;;;;;;0.10;0.10;;;;;;;;;;5134517;28;20050;-47
2023/07/23 11:55:19;;;;;;;0.10;0.10;;;;;;;;;;5133711;28;20068;-50
2023/07/23 11:57:49;;;;;;;0.13;0.13;;;;;;;;;;5134144;28;20054;-48
2023/07/23 12:00:22;;;;;;;0.10;0.10;;;;;;;;;;5132309;27;20099;-50
2023/07/23 12:02:47;;;;;;;0.10;0.10;;;;;;;;;;5134003;28;20544;-50
2023/07/23 12:05:14;;;;;;;0.10;0.10;;;;;;;;;;5134337;28;20059;-50
2023/07/23 12:07:39;;;;;;;0.10;0.10;;;;;;;;;;5133920;28;20043;-49
2023/07/23 12:10:05;;;;;;;0.10;0.10;;;;;;;;;;5129481;27;20043;-50
2023/07/23 12:12:32;;;;;;;0.10;0.10;;;;;;;;;;5133897;28;20133;-50
2023/07/23 12:15:05;;;;;;;0.20;0.20;;;;;;;;;;5133887;27;20054;-50
2023/07/23 12:17:30;;;;;;;0.20;0.20;;;;;;;;;;5133593;28;20096;-50
2023/07/23 12:19:56;;;;;;;0.10;0.10;;;;;;;;;;5133675;28;20415;-50
2023/07/23 12:22:24;;;;;;;0.10;0.10;;;;;;;;;;5133599;28;20476;-49
2023/07/23 12:24:50;;;;;;;0.20;0.20;;;;;;;;;;5133582;28;20083;-48
2023/07/23 12:27:16;;;;;;;0.10;0.10;;;;;;;;;;5133796;28;20047;-47
2023/07/23 12:29:42;;;;;;;0.10;0.10;;;;;;;;;;5133406;28;20823;-49
2023/07/23 12:32:16;;;;;;;0.17;0.17;;;;;;;;;;5133500;28;20054;-49
2023/07/23 12:34:42;;;;;;;0.10;0.10;;;;;;;;;;5133731;28;20104;-50
2023/07/23 12:37:08;;;;;;;0.10;0.10;;;;;;;;;;5133478;28;20043;-49
2023/07/23 12:39:34;;;;;;;0.10;0.10;;;;;;;;;;5132958;28;20120;-49
2023/07/23 12:41:59;;;;;;;0.10;0.10;;;;;;;;;;5132862;28;20040;-50
2023/07/23 12:44:25;;;;;;;0.10;0.10;;;;;;;;;;5132800;28;20099;-50
2023/07/23 12:46:51;;;;;;;0.10;0.10;;;;;;;;;;5133030;28;20554;-49
2023/07/23 12:49:16;;;;;;;0.13;0.13;;;;;;;;;;5133266;27;20050;-50
2023/07/23 12:51:42;;;;;;;0.10;0.10;;;;;;;;;;5132735;28;20415;-49
2023/07/23 12:54:07;;;;;;;0.10;0.10;;;;;;;;;;5133553;28;20395;-50
2023/07/23 12:56:33;;;;;;;0.10;0.10;;;;;;;;;;5132517;28;20051;-50
2023/07/23 12:58:59;;;;;;;0.10;0.10;;;;;;;;;;5133078;28;20051;-50
2023/07/23 13:01:25;;;;;;;0.10;0.10;;;;;;;;;;5131350;27;20047;-49
2023/07/23 13:03:51;;;;;;;0.10;0.10;;;;;;;;;;5133033;27;20446;-50
2023/07/23 13:06:16;;;;;;;0.10;0.10;;;;;;;;;;5133408;28;20039;-50
2023/07/23 13:08:42;;;;;;;0.10;0.10;;;;;;;;;;5133141;28;20216;-50
2023/07/23 13:11:07;;;;;;;0.10;0.10;;;;;;;;;;5131915;27;20076;-49
2023/07/23 13:13:33;;;;;;;0.10;0.10;;;;;;;;;;5133208;28;20043;-50
2023/07/23 13:15:59;;;;;;;0.10;0.10;;;;;;;;;;5132281;28;20043;-50
2023/07/23 13:18:24;;;;;;;0.10;0.10;;;;;;;;;;5132707;28;20103;-49
2023/07/23 13:20:50;;;;;;;0.10;0.10;;;;;;;;;;5132631;28;20410;-49
2023/07/23 13:23:15;;;;;;;0.10;0.10;;;;;;;;;;5131866;28;20047;-50
2023/07/23 13:25:42;;;;;;;0.10;0.10;;;;;;;;;;5131809;28;20398;-50
2023/07/23 13:28:07;;;;;;;0.10;0.10;;;;;;;;;;5132006;27;20078;-49
2023/07/23 13:30:33;;;;;;;0.10;0.10;;;;;;;;;;5131007;28;20070;-50
2023/07/23 13:32:58;;;;;;;0.10;0.10;;;;;;;;;;5131976;28;20051;-49
2023/07/23 13:35:26;;;;;;;0.10;0.10;;;;;;;;;;5131762;28;20047;-50
2023/07/23 13:37:52;;;;;;;0.10;0.10;;;;;;;;;;5131508;28;20054;-50
2023/07/23 13:40:17;;;;;;;0.10;0.10;;;;;;;;;;5130822;28;20062;-49
2023/07/23 13:42:43;;;;;;;0.10;0.10;;;;;;;;;;5131282;28;20449;-49
2023/07/23 13:45:09;;;;;;;0.10;0.10;;;;;;;;;;5131099;28;20040;-50
2023/07/23 13:47:34;;;;;;;0.10;0.10;;;;;;;;;;5130451;27;20043;-50
2023/07/23 13:50:00;;;;;;;0.10;0.10;;;;;;;;;;5130759;27;20055;-50
2023/07/23 13:52:26;;;;;;;0.10;0.10;;;;;;;;;;5131793;27;20073;-49
2023/07/23 13:54:52;;;;;;;0.10;0.10;;;;;;;;;;5131750;28;20046;-50
2023/07/23 13:57:17;;;;;;;0.10;0.10;;;;;;;;;;5131077;28;20077;-49
2023/07/23 13:59:43;;;;;;;0.10;0.10;;;;;;;;;;5130871;28;20103;-50
2023/07/23 14:02:08;;;;;;;0.15;0.15;;;;;;;;;;5131002;27;20666;-50
2023/07/23 14:04:34;;;;;;;0.10;0.10;;;;;;;;;;5131169;28;20424;-49
2023/07/23 14:06:59;;;;;;;0.10;0.10;;;;;;;;;;5131976;28;20043;-49
2023/07/23 14:09:25;;;;;;;0.10;0.10;;;;;;;;;;5131328;27;20047;-52
2023/07/23 14:11:50;;;;;;;0.10;0.10;;;;;;;;;;5130657;27;20047;-52
2023/07/23 14:14:16;;;;;;;0.10;0.10;;;;;;;;;;5131849;28;20092;-52
2023/07/23 14:16:41;;;;;;;0.10;0.10;;;;;;;;;;5131691;28;20055;-51
2023/07/23 14:19:07;;;;;;;0.10;0.10;;;;;;;;;;5131507;27;20139;-50
2023/07/23 14:21:33;;;;;;;0.10;0.10;;;;;;;;;;5130805;28;20047;-52
2023/07/23 14:23:59;;;;;;;0.10;0.10;;;;;;;;;;5131180;28;20479;-52
2023/07/23 14:26:24;;;;;;;0.10;0.10;;;;;;;;;;5131371;28;20137;-52
2023/07/23 14:28:50;;;;;;;0.10;0.10;;;;;;;;;;5131744;27;20047;-52
2023/07/23 14:31:16;;;;;;;0.10;0.10;;;;;;;;;;5130801;28;20064;-52
2023/07/23 14:33:42;;;;;;;0.10;0.10;;;;;;;;;;5131526;28;20047;-52
2023/07/23 14:36:07;;;;;;;0.10;0.10;;;;;;;;;;5131203;28;20146;-51
2023/07/23 14:38:36;;;;;;;0.10;0.10;;;;;;;;;;5131145;28;20051;-52
2023/07/23 14:41:01;;;;;;;0.10;0.10;;;;;;;;;;5130751;28;20043;-52